Balgau, France

2:53 PM CEST on April 30, 2017 (GMT +0200)
Rue de Thierhurst | | Change Station

Elev 649 ft 47.95 °N, 7.55 °E | Updated 7 minutes ago

Clear
Clear
60.8 °F
Feels Like 60.8 °F
N
1.9
Wind Variable Wind from NW
Gusts 6.8 mph

Today
High -- | Low -- °F
--% Chance of Precip.
Yesterday
High -- | Low -- °F
Precip. -- in
Pressure 29.77 in
Visibility 6.2 miles
Clouds Few 5000 ft
Dew Point 48 °F
Humidity 63%
Rainfall 0.00 in
Snow Depth Not available.
6:13 AM 8:41 PM
Waxing Crescent, 22% visible
METAR LFSB 301230Z 10008G19KT 040V170 9999 FEW050 19/02 Q1008 NOSIG
Pressure 29.77 in
Visibility 6.2 miles
Clouds Few 5000 ft
Dew Point 48 °F
Humidity 63%
Rainfall 0.00 in
Snow Depth Not available.
6:13 AM 8:41 PM
Waxing Crescent, 22% visible
METAR LFSB 301230Z 10008G19KT 040V170 9999 FEW050 19/02 Q1008 NOSIG

Get Severe Weather Alerts

Thanks for signing up!

Be on the lookout for a verification email in your inbox.

You'll start receiving the daily forecast at 8 AM.

×

10-Day Weather Forecast

×

Almanac

Astronomy

Apr. 30, 2017 Rise Set
Actual Time
Civil Twilight
Nautical Twilight
Astronomical Twilight
Moon
Length of Visible Light
Length of Day
Tomorrow will be .
, % of the Moon is Illuminated

Today's Extremes

Country Highs Country Lows

Community

WunderPhotos

WunderBlog® & News

Nearby

Air Quality

  Air Quality AQ Index Pollutant
Not available.

Snow Depth

Station Depth Elevation

Earthquake Activity

City Distance Mag. Time & Date
Minimum magnitude displayed is 2.5.

Coastal Water Temperatures

Place Temperature

Stations

Nearby Weather Stations

Station Location Temp. Windchill Dew Point Humidity Wind Precip. Elev Updated Type